createdAt,value
2023-01-29T00:01:58.805Z,5.60
2023-01-29T00:04:26.603Z,5.80
2023-01-29T00:06:53.219Z,6.13
2023-01-29T00:09:19.829Z,5.53
2023-01-29T00:11:47.156Z,5.70
2023-01-29T00:14:13.879Z,5.90
2023-01-29T00:16:42.830Z,7.10
2023-01-29T00:19:09.553Z,7.30
2023-01-29T00:21:36.724Z,7.17
2023-01-29T00:24:03.441Z,7.50
2023-01-29T00:26:30.123Z,7.67
2023-01-29T00:29:00.699Z,7.20
2023-01-29T00:31:27.460Z,8.30
2023-01-29T00:33:54.049Z,8.07
2023-01-29T00:36:22.173Z,7.73
2023-01-29T00:38:59.745Z,7.17
2023-01-29T00:41:47.094Z,6.80
2023-01-29T00:44:32.686Z,6.47
2023-01-29T00:47:00.107Z,7.27
2023-01-29T00:49:26.711Z,7.50
2023-01-29T00:52:11.806Z,7.43
2023-01-29T00:54:38.412Z,7.57
2023-01-29T00:57:05.165Z,7.50
2023-01-29T00:59:31.940Z,7.17
2023-01-29T01:02:25.365Z,7.57
2023-01-29T01:04:51.997Z,6.80
2023-01-29T01:07:18.803Z,7.40
2023-01-29T01:10:03.883Z,7.30
2023-01-29T01:12:30.767Z,7.43
2023-01-29T01:14:57.856Z,8.13
2023-01-29T01:17:24.585Z,8.47
2023-01-29T01:19:51.218Z,7.83
2023-01-29T01:22:17.842Z,7.47
2023-01-29T01:24:44.447Z,7.70
2023-01-29T01:27:11.140Z,7.50
2023-01-29T01:29:37.991Z,7.43
2023-01-29T01:32:06.054Z,6.57
2023-01-29T01:34:32.885Z,6.93
2023-01-29T01:36:59.530Z,6.60
2023-01-29T01:39:26.092Z,6.97
2023-01-29T01:41:56.339Z,6.70
2023-01-29T01:44:59.415Z,7.60
2023-01-29T01:47:52.304Z,6.50
2023-01-29T01:50:24.236Z,6.17
2023-01-29T01:52:55.962Z,7.37
2023-01-29T01:55:26.609Z,6.83
2023-01-29T01:57:57.371Z,7.45
2023-01-29T02:00:26.112Z,6.63
2023-01-29T02:03:12.350Z,7.13
2023-01-29T02:05:58.962Z,7.63
2023-01-29T02:09:01.591Z,6.13
2023-01-29T02:11:28.174Z,6.53
2023-01-29T02:13:54.786Z,6.40
2023-01-29T02:16:22.981Z,7.00
2023-01-29T02:18:50.541Z,6.87
2023-01-29T02:21:35.250Z,6.00
2023-01-29T02:24:23.578Z,6.40
2023-01-29T02:27:04.839Z,6.10
2023-01-29T02:29:35.404Z,6.40
2023-01-29T02:32:17.604Z,6.15
2023-01-29T02:35:15.541Z,5.87
2023-01-29T02:38:11.059Z,5.20
2023-01-29T02:40:54.303Z,6.10
2023-01-29T02:43:42.505Z,5.97
2023-01-29T02:46:32.439Z,6.20
2023-01-29T02:49:22.316Z,5.60
2023-01-29T02:52:05.242Z,6.13
2023-01-29T02:54:31.919Z,5.93
2023-01-29T02:57:08.065Z,5.63
2023-01-29T02:59:41.670Z,5.00
2023-01-29T03:02:20.948Z,5.17
2023-01-29T03:04:55.092Z,5.90
2023-01-29T03:07:52.131Z,4.77
2023-01-29T03:10:37.406Z,5.50
2023-01-29T03:13:12.725Z,5.10
2023-01-29T03:15:47.016Z,5.30
2023-01-29T03:18:19.047Z,5.00
2023-01-29T03:20:53.924Z,5.30
2023-01-29T03:23:52.753Z,5.13
2023-01-29T03:26:41.320Z,5.00
2023-01-29T03:29:28.670Z,5.10
2023-01-29T03:32:08.607Z,5.20
2023-01-29T03:34:45.814Z,4.40
2023-01-29T03:37:19.452Z,4.77
2023-01-29T03:39:46.156Z,4.67
2023-01-29T03:42:15.725Z,4.80
2023-01-29T03:44:51.735Z,5.03
2023-01-29T03:47:33.296Z,4.87
2023-01-29T03:50:05.384Z,5.10
2023-01-29T03:52:39.122Z,4.93
2023-01-29T03:55:13.296Z,5.23
2023-01-29T03:58:22.843Z,5.20
2023-01-29T04:01:14.875Z,5.03
2023-01-29T04:04:33.614Z,4.83
2023-01-29T04:07:33.537Z,4.63
2023-01-29T04:10:12.167Z,5.20
2023-01-29T04:13:05.592Z,4.90
2023-01-29T04:15:38.177Z,4.60
2023-01-29T04:18:05.134Z,4.50
2023-01-29T04:20:31.707Z,4.80
2023-01-29T04:22:58.564Z,4.70
2023-01-29T04:25:30.648Z,5.07
2023-01-29T04:28:20.796Z,4.77
2023-01-29T04:30:58.701Z,4.70
2023-01-29T04:33:31.901Z,5.00
2023-01-29T04:36:16.506Z,4.37
2023-01-29T04:39:18.001Z,4.80
2023-01-29T04:41:55.790Z,4.10
2023-01-29T04:44:50.039Z,4.57
2023-01-29T04:47:29.904Z,3.90
2023-01-29T04:50:09.825Z,3.90
2023-01-29T04:52:58.846Z,3.77
2023-01-29T04:55:53.529Z,3.87
2023-01-29T04:58:20.170Z,3.87
2023-01-29T05:00:50.432Z,3.60
2023-01-29T05:03:17.303Z,4.35
2023-01-29T05:05:49.132Z,3.70
2023-01-29T05:08:20.136Z,3.63
2023-01-29T05:10:51.698Z,4.22
2023-01-29T05:13:44.478Z,3.93
2023-01-29T05:16:21.732Z,4.13
2023-01-29T05:18:48.540Z,4.10
2023-01-29T05:21:15.062Z,3.97
2023-01-29T05:23:59.598Z,4.10
2023-01-29T05:26:46.113Z,3.77
2023-01-29T05:29:12.713Z,4.00
2023-01-29T05:31:39.377Z,4.30
2023-01-29T05:34:05.963Z,4.40
2023-01-29T05:36:32.585Z,4.47
2023-01-29T05:38:59.177Z,3.80
2023-01-29T05:41:25.741Z,3.80
2023-01-29T05:43:52.344Z,4.10
2023-01-29T05:46:18.932Z,4.03
2023-01-29T05:48:45.621Z,3.63
2023-01-29T05:51:12.267Z,4.50
2023-01-29T05:53:38.845Z,4.13
2023-01-29T05:56:05.761Z,3.83
2023-01-29T05:58:34.141Z,4.63
2023-01-29T06:01:18.186Z,3.90
2023-01-29T06:03:46.437Z,4.03
2023-01-29T06:06:13.251Z,4.93
2023-01-29T06:08:40.255Z,4.63
2023-01-29T06:11:11.828Z,5.30
2023-01-29T06:13:39.135Z,5.30
2023-01-29T06:16:07.162Z,6.27
2023-01-29T06:18:33.845Z,7.73
2023-01-29T06:21:02.530Z,10.37
2023-01-29T06:23:30.000Z,11.27
2023-01-29T06:26:05.824Z,8.87
2023-01-29T06:28:32.645Z,6.97
2023-01-29T06:31:21.004Z,8.07
2023-01-29T06:33:48.991Z,9.37
2023-01-29T06:36:15.567Z,9.90
2023-01-29T06:38:42.152Z,11.07
2023-01-29T06:41:13.295Z,11.63
2023-01-29T06:46:08.443Z,9.43
2023-01-29T06:48:35.762Z,7.73
2023-01-29T06:51:07.790Z,10.90
2023-01-29T06:53:35.662Z,9.83
2023-01-29T06:56:02.578Z,9.93
2023-01-29T06:58:29.280Z,10.07
2023-01-29T07:01:06.744Z,8.07
2023-01-29T07:03:33.321Z,7.40
2023-01-29T07:06:00.379Z,10.30
2023-01-29T07:08:27.688Z,8.80
2023-01-29T07:11:00.075Z,12.00
2023-01-29T07:13:26.989Z,11.30
2023-01-29T07:15:53.565Z,9.53
2023-01-29T07:18:28.663Z,14.30
2023-01-29T07:20:56.860Z,12.43
2023-01-29T07:23:24.154Z,9.60
2023-01-29T07:25:51.288Z,14.37
2023-01-29T07:28:18.867Z,14.10
2023-01-29T07:30:45.457Z,9.10
2023-01-29T07:33:12.114Z,13.40
2023-01-29T07:35:43.397Z,11.13
2023-01-29T07:38:11.207Z,9.50
2023-01-29T07:40:38.046Z,11.43
2023-01-29T07:43:07.368Z,9.37
2023-01-29T07:45:36.337Z,9.50
2023-01-29T07:48:05.075Z,8.73
2023-01-29T07:50:35.739Z,9.07
2023-01-29T07:53:02.408Z,8.13
2023-01-29T07:55:31.126Z,7.30
2023-01-29T07:58:03.900Z,7.10
2023-01-29T08:00:37.510Z,7.20
2023-01-29T08:03:11.056Z,6.80
2023-01-29T08:05:38.070Z,7.43
2023-01-29T08:08:07.249Z,6.97
2023-01-29T08:10:37.691Z,7.80
2023-01-29T08:13:05.619Z,8.20
2023-01-29T08:15:37.902Z,7.60
2023-01-29T08:18:05.805Z,9.10
2023-01-29T08:20:32.497Z,8.60
2023-01-29T08:23:04.668Z,8.77
2023-01-29T08:25:32.115Z,9.60
2023-01-29T08:27:59.441Z,10.33
2023-01-29T08:30:31.638Z,8.40
2023-01-29T08:32:58.630Z,8.37
2023-01-29T08:35:25.865Z,9.27
2023-01-29T08:37:54.433Z,8.40
2023-01-29T08:40:21.430Z,8.93
2023-01-29T08:42:48.094Z,8.37
2023-01-29T08:45:14.700Z,7.37
2023-01-29T08:47:50.538Z,7.43
2023-01-29T08:50:18.233Z,5.83
2023-01-29T08:52:45.480Z,6.60
2023-01-29T08:55:16.108Z,6.53
2023-01-29T08:57:42.926Z,6.32
2023-01-29T09:00:11.671Z,7.43
2023-01-29T09:02:38.382Z,6.63
2023-01-29T09:05:05.578Z,6.43
2023-01-29T09:07:33.022Z,6.47
2023-01-29T09:09:59.737Z,6.57
2023-01-29T09:12:26.333Z,6.43
2023-01-29T09:14:53.071Z,6.47
2023-01-29T09:17:24.812Z,6.63
2023-01-29T09:19:53.212Z,7.07
2023-01-29T09:22:20.405Z,7.27
2023-01-29T09:24:47.112Z,6.20
2023-01-29T09:27:14.724Z,7.10
2023-01-29T09:29:41.378Z,6.77
2023-01-29T09:32:07.982Z,6.40
2023-01-29T09:34:35.064Z,6.33
2023-01-29T09:37:01.639Z,6.07
2023-01-29T09:39:28.275Z,5.70
2023-01-29T09:42:08.262Z,5.50
2023-01-29T09:44:53.237Z,5.40
2023-01-29T09:47:28.263Z,5.80
2023-01-29T09:50:18.429Z,5.87
2023-01-29T09:52:55.080Z,6.18
2023-01-29T09:55:32.661Z,7.13
2023-01-29T09:58:35.311Z,6.33
2023-01-29T10:01:31.973Z,6.80
2023-01-29T10:04:21.410Z,5.83
2023-01-29T10:06:47.927Z,4.97
2023-01-29T10:09:36.154Z,5.10
2023-01-29T10:12:20.944Z,5.47
2023-01-29T10:15:02.696Z,5.30
2023-01-29T10:17:35.182Z,6.00
2023-01-29T10:20:27.736Z,5.20
2023-01-29T10:22:57.051Z,5.57
2023-01-29T10:25:24.157Z,6.57
2023-01-29T10:27:57.187Z,7.27
2023-01-29T10:30:39.666Z,6.53
2023-01-29T10:33:17.063Z,6.27
2023-01-29T10:35:50.140Z,7.00
2023-01-29T10:38:42.999Z,6.43
2023-01-29T10:41:47.339Z,6.77
2023-01-29T10:44:31.674Z,5.70
2023-01-29T10:47:10.300Z,6.63
2023-01-29T10:50:14.401Z,7.27
2023-01-29T10:52:59.704Z,6.83
2023-01-29T10:56:01.276Z,7.00
2023-01-29T10:58:43.043Z,7.90
2023-01-29T11:01:10.327Z,6.60
2023-01-29T11:03:37.590Z,7.20
2023-01-29T11:06:17.121Z,6.40
2023-01-29T11:08:52.720Z,6.33
2023-01-29T11:11:22.436Z,6.50
2023-01-29T11:14:00.189Z,6.97
2023-01-29T11:16:30.232Z,6.53
2023-01-29T11:19:01.674Z,6.90
2023-01-29T11:21:29.818Z,6.70
2023-01-29T11:24:07.588Z,6.33
2023-01-29T11:26:38.657Z,6.73
2023-01-29T11:29:05.362Z,7.07
2023-01-29T11:31:39.541Z,6.97
2023-01-29T11:34:16.810Z,7.53
2023-01-29T11:36:45.049Z,10.00
2023-01-29T11:39:19.615Z,9.83
2023-01-29T11:42:04.723Z,7.97
2023-01-29T11:44:33.429Z,14.03
2023-01-29T11:47:14.690Z,13.10
2023-01-29T11:49:46.763Z,12.23
2023-01-29T11:52:15.667Z,19.63
2023-01-29T11:55:02.246Z,22.97
2023-01-29T11:57:39.548Z,17.30
2023-01-29T12:00:23.390Z,18.20
2023-01-29T12:03:12.939Z,21.37
2023-01-29T12:05:41.477Z,10.90
2023-01-29T12:08:18.439Z,13.47
2023-01-29T12:10:45.123Z,17.83
2023-01-29T12:13:15.858Z,14.87
2023-01-29T12:15:43.082Z,17.77
2023-01-29T12:18:32.242Z,20.83
2023-01-29T12:21:25.336Z,17.43
2023-01-29T12:24:01.553Z,13.53
2023-01-29T12:26:35.999Z,11.93
2023-01-29T12:29:20.988Z,20.93
2023-01-29T12:32:10.310Z,13.87
2023-01-29T12:34:46.448Z,13.60
2023-01-29T12:37:40.596Z,10.10
2023-01-29T12:40:16.901Z,9.03
2023-01-29T12:42:48.249Z,12.17
2023-01-29T12:45:28.313Z,11.30
2023-01-29T12:48:02.327Z,12.00
2023-01-29T12:50:34.066Z,12.00
2023-01-29T12:53:27.783Z,11.00
2023-01-29T12:56:05.664Z,10.53
2023-01-29T12:58:35.184Z,12.63
2023-01-29T13:01:13.144Z,8.77
2023-01-29T13:04:08.871Z,10.20
2023-01-29T13:06:50.799Z,11.83
2023-01-29T13:09:21.666Z,11.30
2023-01-29T13:12:07.780Z,10.23
2023-01-29T13:14:58.771Z,11.20
2023-01-29T13:20:23.242Z,10.90
2023-01-29T13:22:54.468Z,11.48
2023-01-29T13:25:21.173Z,12.80
2023-01-29T13:27:49.306Z,10.63
2023-01-29T13:30:31.786Z,9.27
2023-01-29T13:33:11.445Z,9.50
2023-01-29T13:35:45.087Z,10.00
2023-01-29T13:38:45.067Z,11.40
2023-01-29T13:41:12.409Z,13.13
2023-01-29T13:43:42.608Z,13.40
2023-01-29T13:46:12.846Z,13.75
2023-01-29T13:48:46.845Z,12.63
2023-01-29T13:51:19.645Z,14.30
2023-01-29T13:53:58.660Z,14.10
2023-01-29T13:56:56.212Z,13.37
2023-01-29T13:59:55.502Z,13.10
2023-01-29T14:02:27.726Z,11.83
2023-01-29T14:05:32.198Z,12.20
2023-01-29T14:08:14.118Z,11.70
2023-01-29T14:10:43.160Z,11.00
2023-01-29T14:13:18.149Z,10.80
2023-01-29T14:16:05.107Z,10.53
2023-01-29T14:18:34.488Z,10.30
2023-01-29T14:21:07.073Z,10.53
2023-01-29T14:23:36.161Z,10.40
2023-01-29T14:26:06.184Z,10.60
2023-01-29T14:28:34.995Z,10.43
2023-01-29T14:31:03.114Z,10.93
2023-01-29T14:33:42.476Z,9.70
2023-01-29T14:36:13.695Z,8.45
2023-01-29T14:38:46.411Z,9.27
2023-01-29T14:41:29.683Z,9.43
2023-01-29T14:44:41.268Z,9.40
2023-01-29T14:47:18.917Z,9.13
2023-01-29T14:49:57.862Z,9.37
2023-01-29T14:52:40.530Z,8.67
2023-01-29T14:55:15.882Z,7.90
2023-01-29T14:57:43.063Z,7.97
2023-01-29T15:00:28.520Z,9.97
2023-01-29T15:03:01.973Z,9.13
2023-01-29T15:05:35.476Z,9.07
2023-01-29T15:08:30.279Z,8.50
2023-01-29T15:11:19.326Z,9.23
2023-01-29T15:14:07.071Z,9.97
2023-01-29T15:16:52.724Z,9.63
2023-01-29T15:19:48.102Z,9.30
2023-01-29T15:22:19.915Z,14.80
2023-01-29T15:25:01.518Z,16.73
2023-01-29T15:27:29.038Z,12.57
2023-01-29T15:30:01.715Z,9.77
2023-01-29T15:32:33.163Z,10.63
2023-01-29T15:35:00.707Z,11.87
2023-01-29T15:37:32.935Z,10.67
2023-01-29T15:40:01.160Z,11.03
2023-01-29T15:42:29.315Z,10.60
2023-01-29T15:44:56.218Z,10.50
2023-01-29T15:47:30.894Z,10.57
2023-01-29T15:49:58.070Z,12.17
2023-01-29T15:52:35.274Z,11.77
2023-01-29T15:55:06.257Z,10.47
2023-01-29T15:57:41.438Z,10.55
2023-01-29T16:00:20.104Z,9.77
2023-01-29T16:02:46.813Z,10.50
2023-01-29T16:05:23.903Z,10.83
2023-01-29T16:07:51.863Z,10.53
2023-01-29T16:10:30.702Z,10.00
2023-01-29T16:12:58.771Z,10.53
2023-01-29T16:15:38.027Z,10.13
2023-01-29T16:18:21.368Z,9.47
2023-01-29T16:20:53.323Z,10.30
2023-01-29T16:23:31.856Z,10.73
2023-01-29T16:26:03.523Z,9.67
2023-01-29T16:28:30.332Z,10.33
2023-01-29T16:31:01.907Z,10.37
2023-01-29T16:33:36.480Z,9.63
2023-01-29T16:36:11.728Z,10.83
2023-01-29T16:38:43.183Z,10.37
2023-01-29T16:41:22.104Z,9.57
2023-01-29T16:43:56.508Z,10.30
2023-01-29T16:46:36.659Z,10.33
2023-01-29T16:49:26.061Z,9.57
2023-01-29T16:51:53.875Z,9.40
2023-01-29T16:54:27.818Z,10.87
2023-01-29T16:57:00.213Z,10.27
2023-01-29T16:59:36.905Z,10.03
2023-01-29T17:02:04.838Z,10.23
2023-01-29T17:04:33.030Z,12.97
2023-01-29T17:07:01.689Z,13.67
2023-01-29T17:09:34.910Z,12.40
2023-01-29T17:12:05.664Z,12.97
2023-01-29T17:14:33.354Z,13.52
2023-01-29T17:17:14.530Z,16.57
2023-01-29T17:22:15.348Z,14.00
2023-01-29T17:24:42.620Z,14.27
2023-01-29T17:27:27.068Z,13.97
2023-01-29T17:29:54.179Z,14.97
2023-01-29T17:32:20.983Z,17.37
2023-01-29T17:34:47.652Z,14.23
2023-01-29T17:37:16.261Z,13.73
2023-01-29T17:39:44.104Z,13.00
2023-01-29T17:42:15.281Z,13.03
2023-01-29T17:44:43.238Z,11.27
2023-01-29T17:47:13.932Z,10.93
2023-01-29T17:49:44.309Z,10.93
2023-01-29T17:52:11.153Z,10.50
2023-01-29T17:54:37.912Z,10.30
2023-01-29T17:57:04.579Z,10.57
2023-01-29T17:59:33.395Z,10.77
2023-01-29T18:02:00.482Z,10.20
2023-01-29T18:04:27.602Z,10.27
2023-01-29T18:06:55.791Z,10.53
2023-01-29T18:09:22.585Z,10.00
2023-01-29T18:11:50.513Z,9.57
2023-01-29T18:14:17.733Z,10.17
2023-01-29T18:16:45.714Z,10.30
2023-01-29T18:19:31.208Z,9.93
2023-01-29T18:21:58.013Z,11.03
2023-01-29T18:24:26.905Z,10.83
2023-01-29T18:26:53.578Z,9.80
2023-01-29T18:29:30.563Z,10.07
2023-01-29T18:31:57.360Z,13.27
2023-01-29T18:34:24.048Z,12.57
2023-01-29T18:36:50.828Z,11.97
2023-01-29T18:39:17.448Z,14.80
2023-01-29T18:41:44.218Z,15.10
2023-01-29T18:44:11.091Z,13.40
2023-01-29T18:46:37.608Z,14.60
2023-01-29T18:49:05.287Z,15.13
2023-01-29T18:51:31.897Z,14.27
2023-01-29T18:53:58.508Z,13.07
2023-01-29T18:56:25.087Z,11.93
2023-01-29T18:58:55.390Z,12.27
2023-01-29T19:01:23.504Z,14.57
2023-01-29T19:03:51.500Z,15.10
2023-01-29T19:06:19.144Z,16.93
2023-01-29T19:08:47.476Z,14.57
2023-01-29T19:11:14.676Z,14.80
2023-01-29T19:13:42.634Z,13.03
2023-01-29T19:16:11.163Z,14.50
2023-01-29T19:18:38.986Z,13.67
2023-01-29T19:21:10.837Z,14.63
2023-01-29T19:23:38.300Z,12.80
2023-01-29T19:26:05.753Z,12.90
2023-01-29T19:28:32.960Z,12.23
2023-01-29T19:31:00.896Z,13.43
2023-01-29T19:33:28.284Z,13.13
2023-01-29T19:35:59.374Z,12.97
2023-01-29T19:40:55.107Z,13.23
2023-01-29T19:43:21.765Z,13.13
2023-01-29T19:45:50.694Z,14.33
2023-01-29T19:48:21.380Z,13.93
2023-01-29T19:50:59.485Z,13.23
2023-01-29T19:53:28.739Z,12.70
2023-01-29T19:56:02.966Z,12.40
2023-01-29T19:58:30.231Z,13.43
2023-01-29T20:01:15.592Z,12.87
2023-01-29T20:03:42.499Z,13.80
2023-01-29T20:06:09.453Z,12.63
2023-01-29T20:08:37.093Z,11.93
2023-01-29T20:11:05.872Z,13.40
2023-01-29T20:13:33.736Z,13.17
2023-01-29T20:16:05.639Z,14.40
2023-01-29T20:18:32.627Z,13.93
2023-01-29T20:21:00.283Z,13.10
2023-01-29T20:23:37.126Z,12.87
2023-01-29T20:26:09.758Z,14.00
2023-01-29T20:28:36.749Z,14.97
2023-01-29T20:31:05.020Z,12.77
2023-01-29T20:33:32.399Z,13.27
2023-01-29T20:36:02.528Z,15.27
2023-01-29T20:38:31.898Z,13.33
2023-01-29T20:41:16.122Z,14.47
2023-01-29T20:43:44.205Z,14.87
2023-01-29T20:46:11.262Z,13.43
2023-01-29T20:48:38.178Z,12.57
2023-01-29T20:51:14.023Z,12.87
2023-01-29T20:53:43.119Z,12.20
2023-01-29T20:56:11.288Z,14.70
2023-01-29T20:58:38.387Z,13.97
2023-01-29T21:01:16.168Z,16.53
2023-01-29T21:03:43.455Z,16.93
2023-01-29T21:06:11.308Z,18.63
2023-01-29T21:08:38.324Z,19.47
2023-01-29T21:11:08.268Z,20.57
2023-01-29T21:13:35.398Z,18.30
2023-01-29T21:16:02.484Z,18.67
2023-01-29T21:18:29.591Z,20.23
2023-01-29T21:20:56.471Z,17.73
2023-01-29T21:23:23.311Z,17.10
2023-01-29T21:25:50.012Z,16.77
2023-01-29T21:28:16.906Z,14.73
2023-01-29T21:30:43.641Z,16.90
2023-01-29T21:33:10.503Z,18.03
2023-01-29T21:35:38.005Z,16.23
2023-01-29T21:38:05.124Z,14.33
2023-01-29T21:40:32.017Z,15.13
2023-01-29T21:43:15.466Z,16.13
2023-01-29T21:45:43.242Z,14.77
2023-01-29T21:48:11.467Z,16.60
2023-01-29T21:50:38.328Z,15.77
2023-01-29T21:53:05.080Z,16.20
2023-01-29T21:55:32.646Z,14.10
2023-01-29T21:58:00.557Z,15.87
2023-01-29T22:00:28.060Z,16.83
2023-01-29T22:02:55.928Z,17.17
2023-01-29T22:05:22.653Z,13.87
2023-01-29T22:07:50.439Z,16.47
2023-01-29T22:10:18.845Z,14.67
2023-01-29T22:12:47.495Z,13.63
2023-01-29T22:15:14.612Z,14.73
2023-01-29T22:17:43.960Z,14.10
2023-01-29T22:20:13.173Z,12.43
2023-01-29T22:22:40.819Z,12.50
2023-01-29T22:25:07.896Z,14.33
2023-01-29T22:27:34.575Z,14.40
2023-01-29T22:30:01.478Z,15.83
2023-01-29T22:32:28.320Z,15.83
2023-01-29T22:34:57.927Z,18.57
2023-01-29T22:37:24.593Z,17.23
2023-01-29T22:39:51.250Z,16.37
2023-01-29T22:42:20.246Z,17.87
2023-01-29T22:44:48.194Z,16.10
2023-01-29T22:47:15.090Z,15.87
2023-01-29T22:49:44.651Z,15.87
2023-01-29T22:52:11.729Z,15.77
2023-01-29T22:54:43.575Z,16.80
2023-01-29T22:57:12.423Z,16.13
2023-01-29T22:59:42.449Z,16.17
2023-01-29T23:02:09.642Z,16.27
2023-01-29T23:04:36.566Z,15.07
2023-01-29T23:07:03.975Z,16.70
2023-01-29T23:09:30.616Z,17.77
2023-01-29T23:11:57.245Z,17.13
2023-01-29T23:14:23.821Z,17.37
2023-01-29T23:16:50.485Z,14.47
2023-01-29T23:19:17.061Z,14.27
2023-01-29T23:21:43.702Z,13.33
2023-01-29T23:24:10.682Z,13.33
2023-01-29T23:26:55.613Z,14.03
2023-01-29T23:29:22.267Z,13.33
2023-01-29T23:31:49.011Z,14.20
2023-01-29T23:34:15.786Z,15.00
2023-01-29T23:36:43.111Z,15.20
2023-01-29T23:39:09.939Z,15.77
2023-01-29T23:41:36.926Z,13.50
2023-01-29T23:44:04.303Z,13.53
2023-01-29T23:46:31.081Z,14.27
2023-01-29T23:48:57.779Z,14.17
2023-01-29T23:51:24.447Z,13.33
2023-01-29T23:53:51.058Z,13.77
2023-01-29T23:56:17.855Z,15.47
2023-01-29T23:58:44.962Z,12.30
